Time;durP1;ratioP1;P1;durP2;ratioP2;P2;SDS_P1;SDS_P2;PMS_P1;PMS_P2;Temp;Humidity;BMP_temperature;BMP_pressure;BME280_temperature;BME280_humidity;BME280_pressure;Samples;Min_cycle;Max_cycle;Signal;HPM_P1;HPM_P2
2023/05/27 00:00:59;;;;;;;14.98;5.63;;;;;;;;;;5112951;28;20022;-78
2023/05/27 00:03:25;;;;;;;15.88;4.30;;;;;;;;;;5113252;28;20064;-80
2023/05/27 00:05:50;;;;;;;20.95;4.57;;;;;;;;;;5113024;28;20020;-78
2023/05/27 00:08:15;;;;;;;16.05;4.80;;;;;;;;;;5113358;28;20107;-78
2023/05/27 00:10:40;;;;;;;19.17;4.90;;;;;;;;;;5112757;28;20380;-79
2023/05/27 00:13:06;;;;;;;21.55;5.20;;;;;;;;;;5112917;28;20071;-78
2023/05/27 00:15:31;;;;;;;16.42;4.35;;;;;;;;;;5113153;28;20024;-79
2023/05/27 00:17:58;;;;;;;19.17;5.27;;;;;;;;;;5115977;28;20015;-78
2023/05/27 00:20:23;;;;;;;20.45;5.43;;;;;;;;;;5118217;28;20400;-79
2023/05/27 00:22:50;;;;;;;18.83;5.20;;;;;;;;;;5120039;28;20489;-79
2023/05/27 00:25:16;;;;;;;18.45;5.45;;;;;;;;;;5098845;28;20016;-78
2023/05/27 00:27:41;;;;;;;14.07;5.40;;;;;;;;;;5116641;28;20109;-76
2023/05/27 00:30:07;;;;;;;18.42;4.85;;;;;;;;;;5116686;28;20424;-78
2023/05/27 00:32:32;;;;;;;15.82;5.63;;;;;;;;;;5116602;28;20027;-79
2023/05/27 00:34:57;;;;;;;18.95;4.82;;;;;;;;;;5116283;28;20019;-80
2023/05/27 00:37:23;;;;;;;17.80;5.97;;;;;;;;;;5116274;28;20110;-78
2023/05/27 00:39:48;;;;;;;22.20;5.70;;;;;;;;;;5097906;28;20020;-79
2023/05/27 00:42:14;;;;;;;13.85;4.47;;;;;;;;;;5116500;28;20026;-78
2023/05/27 00:44:39;;;;;;;17.98;5.00;;;;;;;;;;5115931;28;20479;-80
2023/05/27 00:47:05;;;;;;;11.75;4.32;;;;;;;;;;5097831;28;20031;-79
2023/05/27 00:49:30;;;;;;;14.77;4.90;;;;;;;;;;5116354;28;20490;-80
2023/05/27 00:51:55;;;;;;;16.23;5.93;;;;;;;;;;5097513;28;20534;-79
2023/05/27 00:54:21;;;;;;;17.88;4.80;;;;;;;;;;5097645;28;20015;-78
2023/05/27 00:56:46;;;;;;;13.13;3.88;;;;;;;;;;5116041;28;20033;-78
2023/05/27 00:59:11;;;;;;;15.93;4.60;;;;;;;;;;5115522;28;20036;-78
2023/05/27 01:01:38;;;;;;;18.83;5.40;;;;;;;;;;5115927;28;20020;-77
2023/05/27 01:04:04;;;;;;;26.27;5.72;;;;;;;;;;5116525;28;20034;-79
2023/05/27 01:06:32;;;;;;;24.25;5.65;;;;;;;;;;5115726;28;20032;-79
2023/05/27 01:09:20;;;;;;;17.38;4.60;;;;;;;;;;5115689;28;20034;-79
2023/05/27 01:11:59;;;;;;;17.85;5.78;;;;;;;;;;5101368;28;20036;-78
2023/05/27 01:14:25;;;;;;;20.42;4.70;;;;;;;;;;5115468;28;20020;-79
2023/05/27 01:16:51;;;;;;;22.52;4.72;;;;;;;;;;5115668;28;20051;-77
2023/05/27 01:19:46;;;;;;;19.80;4.82;;;;;;;;;;5115852;28;20020;-79
2023/05/27 01:22:12;;;;;;;15.50;4.85;;;;;;;;;;5093309;28;20032;-80
2023/05/27 01:24:38;;;;;;;20.95;5.20;;;;;;;;;;5115509;28;20022;-79
2023/05/27 01:27:03;;;;;;;13.68;5.05;;;;;;;;;;5115477;28;20376;-78
2023/05/27 01:29:29;;;;;;;20.80;5.00;;;;;;;;;;5115187;28;20024;-78
2023/05/27 01:32:08;;;;;;;16.67;4.90;;;;;;;;;;5096447;28;20365;-79
2023/05/27 01:34:35;;;;;;;21.05;5.72;;;;;;;;;;5114942;28;20058;-78
2023/05/27 01:37:04;;;;;;;18.30;4.40;;;;;;;;;;5114867;28;20058;-80
2023/05/27 01:39:31;;;;;;;17.42;4.38;;;;;;;;;;5115025;28;20460;-77
2023/05/27 01:41:57;;;;;;;22.27;6.32;;;;;;;;;;5097138;28;20376;-78
2023/05/27 01:44:22;;;;;;;22.90;6.30;;;;;;;;;;5115069;28;20024;-77
2023/05/27 01:46:47;;;;;;;15.45;4.60;;;;;;;;;;5114897;28;20080;-78
2023/05/27 01:49:13;;;;;;;17.52;4.20;;;;;;;;;;5114672;28;20468;-78
2023/05/27 01:51:38;;;;;;;23.90;4.32;;;;;;;;;;5114997;28;20030;-78
2023/05/27 01:54:03;;;;;;;20.25;5.43;;;;;;;;;;5115073;28;20023;-78
2023/05/27 01:56:29;;;;;;;21.75;5.00;;;;;;;;;;5096359;28;20019;-79
2023/05/27 01:58:54;;;;;;;14.23;4.57;;;;;;;;;;5114479;28;20119;-79
2023/05/27 02:01:21;;;;;;;17.40;4.75;;;;;;;;;;5114793;28;20015;-77
2023/05/27 02:03:46;;;;;;;20.20;4.90;;;;;;;;;;5114424;28;20024;-77
2023/05/27 02:06:12;;;;;;;15.95;5.15;;;;;;;;;;5115340;28;20065;-77
2023/05/27 02:08:37;;;;;;;23.60;4.50;;;;;;;;;;5095920;28;20361;-79
2023/05/27 02:11:02;;;;;;;24.47;5.20;;;;;;;;;;5114427;28;20325;-78
2023/05/27 02:13:28;;;;;;;18.33;5.00;;;;;;;;;;5114235;28;20265;-78
2023/05/27 02:15:54;;;;;;;19.95;4.95;;;;;;;;;;5114212;28;20023;-78
2023/05/27 02:18:20;;;;;;;17.88;4.68;;;;;;;;;;5114398;28;20027;-79
2023/05/27 02:20:46;;;;;;;13.93;4.70;;;;;;;;;;5114190;28;20524;-79
2023/05/27 02:23:11;;;;;;;16.50;4.57;;;;;;;;;;5114481;28;20069;-80
2023/05/27 02:25:36;;;;;;;17.80;5.38;;;;;;;;;;5095840;28;20493;-79
2023/05/27 02:28:02;;;;;;;21.98;5.15;;;;;;;;;;5114352;28;20103;-77
2023/05/27 02:30:28;;;;;;;13.10;4.20;;;;;;;;;;5113906;28;20030;-78
2023/05/27 02:32:54;;;;;;;19.08;5.50;;;;;;;;;;5114056;28;20379;-78
2023/05/27 02:35:21;;;;;;;17.33;4.43;;;;;;;;;;5113966;28;20107;-79
2023/05/27 02:37:46;;;;;;;19.55;5.20;;;;;;;;;;5114148;28;20020;-78
2023/05/27 02:40:11;;;;;;;17.52;6.72;;;;;;;;;;5114225;28;20020;-78
2023/05/27 02:42:36;;;;;;;19.67;5.88;;;;;;;;;;5113059;28;20032;-78
2023/05/27 02:45:02;;;;;;;19.88;5.15;;;;;;;;;;5113874;28;20436;-78
2023/05/27 02:47:27;;;;;;;14.85;4.93;;;;;;;;;;5114213;28;20011;-79
2023/05/27 02:49:53;;;;;;;25.15;5.57;;;;;;;;;;5113826;28;20072;-79
2023/05/27 02:52:18;;;;;;;14.10;4.57;;;;;;;;;;5095342;28;20110;-78
2023/05/27 02:54:43;;;;;;;20.80;5.07;;;;;;;;;;5113744;28;20026;-79
2023/05/27 02:57:08;;;;;;;21.48;5.68;;;;;;;;;;5113855;28;20055;-79
2023/05/27 02:59:34;;;;;;;16.20;5.18;;;;;;;;;;5113428;28;20087;-77
2023/05/27 03:02:01;;;;;;;20.88;6.20;;;;;;;;;;5113506;28;20051;-78
2023/05/27 03:04:26;;;;;;;25.33;5.63;;;;;;;;;;5113639;28;20028;-78
2023/05/27 03:06:52;;;;;;;17.42;5.57;;;;;;;;;;5114268;28;20108;-79
2023/05/27 03:09:17;;;;;;;22.83;5.72;;;;;;;;;;5113502;28;20019;-82
2023/05/27 03:11:42;;;;;;;22.60;5.40;;;;;;;;;;5113694;28;20047;-78
2023/05/27 03:14:08;;;;;;;16.48;5.70;;;;;;;;;;5113743;28;20038;-78
2023/05/27 03:16:34;;;;;;;15.05;5.20;;;;;;;;;;5113355;28;20480;-78
2023/05/27 03:18:59;;;;;;;18.88;5.82;;;;;;;;;;5113265;28;20022;-78
2023/05/27 03:21:24;;;;;;;15.60;4.85;;;;;;;;;;5113582;28;20024;-78
2023/05/27 03:23:50;;;;;;;17.23;5.97;;;;;;;;;;5113386;28;20101;-78
2023/05/27 03:26:15;;;;;;;20.80;6.25;;;;;;;;;;5113352;28;20019;-78
2023/05/27 03:28:40;;;;;;;14.65;5.45;;;;;;;;;;5113645;28;20061;-80
2023/05/27 03:31:06;;;;;;;12.85;5.15;;;;;;;;;;5113490;28;20114;-80
2023/05/27 03:33:31;;;;;;;19.63;5.72;;;;;;;;;;5113089;28;20024;-80
2023/05/27 03:35:56;;;;;;;18.10;5.57;;;;;;;;;;5095055;28;20023;-79
2023/05/27 03:38:21;;;;;;;18.52;6.13;;;;;;;;;;5113463;28;20467;-79
2023/05/27 03:40:46;;;;;;;22.10;7.68;;;;;;;;;;5113348;28;20032;-78
2023/05/27 03:43:12;;;;;;;20.25;5.68;;;;;;;;;;5094819;28;20027;-79
2023/05/27 03:45:37;;;;;;;20.52;6.00;;;;;;;;;;5113088;28;20038;-78
2023/05/27 03:48:02;;;;;;;14.00;6.38;;;;;;;;;;5113069;28;20051;-78
2023/05/27 03:50:28;;;;;;;17.50;5.90;;;;;;;;;;5113731;28;20333;-78
2023/05/27 03:52:53;;;;;;;13.13;5.75;;;;;;;;;;5113116;28;20372;-78
2023/05/27 03:55:20;;;;;;;18.08;6.63;;;;;;;;;;5116501;28;20047;-77
2023/05/27 03:57:46;;;;;;;18.23;6.20;;;;;;;;;;5117293;28;20024;-79
2023/05/27 04:00:12;;;;;;;15.73;6.13;;;;;;;;;;5116812;28;20055;-77
2023/05/27 04:02:37;;;;;;;32.47;6.95;;;;;;;;;;5116614;28;20505;-78
2023/05/27 04:05:03;;;;;;;16.90;5.78;;;;;;;;;;5117270;28;20019;-79
2023/05/27 04:07:28;;;;;;;19.38;5.90;;;;;;;;;;5117201;28;20356;-80
2023/05/27 04:09:54;;;;;;;21.20;7.40;;;;;;;;;;5117101;28;20124;-79
2023/05/27 04:12:20;;;;;;;17.05;6.00;;;;;;;;;;5116569;28;20023;-79
2023/05/27 04:14:45;;;;;;;18.10;6.82;;;;;;;;;;5098299;28;20034;-78
2023/05/27 04:17:11;;;;;;;20.10;6.13;;;;;;;;;;5098189;28;20011;-78
2023/05/27 04:19:36;;;;;;;16.48;6.55;;;;;;;;;;5117010;28;20054;-79
2023/05/27 04:22:02;;;;;;;22.48;6.45;;;;;;;;;;5116763;28;20415;-79
2023/05/27 04:24:27;;;;;;;17.48;5.53;;;;;;;;;;5116441;28;20039;-79
2023/05/27 04:26:52;;;;;;;25.50;6.82;;;;;;;;;;5116987;28;20458;-79
2023/05/27 04:29:18;;;;;;;17.92;5.97;;;;;;;;;;5120075;28;20016;-78
2023/05/27 04:31:47;;;;;;;15.45;5.63;;;;;;;;;;5128256;28;20027;-77
2023/05/27 04:34:12;;;;;;;13.18;6.28;;;;;;;;;;5135607;28;20018;-78
2023/05/27 04:36:37;;;;;;;25.10;6.33;;;;;;;;;;5132896;28;20035;-79
2023/05/27 04:39:04;;;;;;;17.80;6.40;;;;;;;;;;5132019;28;20249;-80
2023/05/27 04:41:30;;;;;;;19.50;6.18;;;;;;;;;;5120919;28;20336;-78
2023/05/27 04:43:56;;;;;;;12.82;5.50;;;;;;;;;;5121533;28;20491;-78
2023/05/27 04:46:22;;;;;;;21.60;6.85;;;;;;;;;;5119127;28;20075;-80
2023/05/27 04:48:47;;;;;;;19.70;6.28;;;;;;;;;;5116481;28;20401;-78
2023/05/27 04:51:15;;;;;;;15.70;5.75;;;;;;;;;;5116088;28;20371;-78
2023/05/27 04:53:40;;;;;;;28.73;6.72;;;;;;;;;;5115833;28;20016;-79
2023/05/27 04:56:08;;;;;;;21.75;5.60;;;;;;;;;;5115763;28;20019;-81
2023/05/27 04:58:33;;;;;;;20.42;5.63;;;;;;;;;;5115719;28;20026;-78
2023/05/27 05:00:59;;;;;;;18.33;5.80;;;;;;;;;;5115883;28;20031;-81
2023/05/27 05:03:39;;;;;;;20.55;5.78;;;;;;;;;;5097622;28;20401;-81
2023/05/27 05:06:05;;;;;;;16.50;5.13;;;;;;;;;;5115214;28;20042;-80
2023/05/27 05:08:30;;;;;;;21.75;5.35;;;;;;;;;;5115619;28;20460;-80
2023/05/27 05:10:55;;;;;;;19.23;6.72;;;;;;;;;;5097235;28;20019;-79
2023/05/27 05:13:20;;;;;;;22.52;5.20;;;;;;;;;;5115630;28;20016;-79
2023/05/27 05:15:46;;;;;;;16.70;5.25;;;;;;;;;;5115789;28;20023;-78
2023/05/27 05:18:12;;;;;;;20.73;4.68;;;;;;;;;;5115411;28;20464;-79
2023/05/27 05:20:37;;;;;;;17.92;4.75;;;;;;;;;;5115927;28;20030;-77
2023/05/27 05:23:02;;;;;;;15.48;4.38;;;;;;;;;;5115383;28;20380;-78
2023/05/27 05:25:29;;;;;;;17.35;4.25;;;;;;;;;;5115339;28;20097;-78
2023/05/27 05:27:55;;;;;;;17.02;4.82;;;;;;;;;;5096941;28;20018;-78
2023/05/27 05:30:20;;;;;;;11.43;4.22;;;;;;;;;;5115171;28;20040;-80
2023/05/27 05:32:45;;;;;;;19.10;5.00;;;;;;;;;;5115639;28;20030;-79
2023/05/27 05:35:11;;;;;;;16.02;4.43;;;;;;;;;;5115116;28;20024;-79
2023/05/27 05:37:36;;;;;;;20.13;4.50;;;;;;;;;;5115284;28;20043;-78
2023/05/27 05:40:01;;;;;;;13.50;4.27;;;;;;;;;;5115022;28;20016;-79
2023/05/27 05:42:27;;;;;;;18.48;3.75;;;;;;;;;;5114991;28;20341;-79
2023/05/27 05:44:52;;;;;;;12.13;3.72;;;;;;;;;;5114742;28;20468;-78
2023/05/27 05:47:18;;;;;;;10.32;3.08;;;;;;;;;;5114964;28;20065;-79
2023/05/27 05:49:43;;;;;;;15.20;4.07;;;;;;;;;;5114971;28;20028;-79
2023/05/27 05:52:08;;;;;;;11.85;3.53;;;;;;;;;;5096532;28;20483;-79
2023/05/27 05:54:34;;;;;;;14.25;3.63;;;;;;;;;;5115098;28;20015;-79
2023/05/27 05:57:00;;;;;;;7.70;2.97;;;;;;;;;;5114913;28;20095;-81
2023/05/27 05:59:26;;;;;;;12.13;3.35;;;;;;;;;;5114392;28;20489;-80
2023/05/27 06:01:51;;;;;;;11.48;3.17;;;;;;;;;;5096277;28;20027;-80
2023/05/27 06:04:17;;;;;;;13.80;3.55;;;;;;;;;;5096364;28;20042;-80
2023/05/27 06:06:42;;;;;;;12.18;3.45;;;;;;;;;;5115115;28;20031;-80
2023/05/27 06:09:07;;;;;;;9.55;3.38;;;;;;;;;;5114777;28;20074;-81
2023/05/27 06:11:33;;;;;;;10.95;3.15;;;;;;;;;;5114647;28;20023;-80
2023/05/27 06:13:58;;;;;;;11.02;3.25;;;;;;;;;;5114114;28;20049;-81
2023/05/27 06:16:24;;;;;;;11.03;2.90;;;;;;;;;;5114364;28;20051;-81
2023/05/27 06:18:49;;;;;;;7.63;3.33;;;;;;;;;;5113549;28;20803;-83
2023/05/27 06:21:14;;;;;;;9.02;2.50;;;;;;;;;;5114229;28;20273;-83
2023/05/27 06:23:39;;;;;;;9.23;3.37;;;;;;;;;;5095931;28;20034;-81
2023/05/27 06:26:05;;;;;;;6.73;2.80;;;;;;;;;;5114322;28;20351;-82
2023/05/27 06:28:30;;;;;;;7.13;2.70;;;;;;;;;;5114336;28;20276;-82
2023/05/27 06:30:55;;;;;;;6.13;2.67;;;;;;;;;;5114303;28;20123;-82
2023/05/27 06:33:20;;;;;;;4.10;2.20;;;;;;;;;;5114057;28;20272;-83
2023/05/27 06:35:46;;;;;;;8.13;2.17;;;;;;;;;;5114375;28;20016;-81
2023/05/27 06:38:12;;;;;;;8.63;2.53;;;;;;;;;;5114411;28;20272;-82
2023/05/27 06:40:37;;;;;;;7.38;2.10;;;;;;;;;;5113978;28;20378;-81
2023/05/27 06:43:03;;;;;;;7.10;2.75;;;;;;;;;;5113633;28;20037;-82
2023/05/27 06:45:28;;;;;;;5.85;2.17;;;;;;;;;;5114146;28;20360;-81
2023/05/27 06:47:53;;;;;;;6.17;1.93;;;;;;;;;;5113890;28;20358;-83
2023/05/27 06:50:19;;;;;;;5.87;2.50;;;;;;;;;;5078726;28;20272;-82
2023/05/27 06:52:44;;;;;;;3.47;1.67;;;;;;;;;;5114180;28;20058;-81
2023/05/27 06:55:09;;;;;;;5.70;2.30;;;;;;;;;;5113758;28;20262;-82
2023/05/27 06:57:34;;;;;;;4.88;1.77;;;;;;;;;;5113745;28;20264;-81
2023/05/27 07:00:00;;;;;;;5.70;2.27;;;;;;;;;;5113657;28;20055;-81
2023/05/27 07:02:25;;;;;;;6.40;2.30;;;;;;;;;;5095308;28;20273;-82
2023/05/27 07:04:53;;;;;;;6.27;2.23;;;;;;;;;;5095468;28;20156;-83
2023/05/27 07:07:19;;;;;;;7.63;2.60;;;;;;;;;;5113733;28;20549;-81
2023/05/27 07:09:44;;;;;;;5.93;2.30;;;;;;;;;;5095372;28;20107;-81
2023/05/27 07:12:10;;;;;;;7.30;2.53;;;;;;;;;;5113476;28;20449;-82
2023/05/27 07:14:36;;;;;;;5.03;1.70;;;;;;;;;;5113831;28;20099;-82
2023/05/27 07:17:01;;;;;;;6.88;2.20;;;;;;;;;;5113694;28;20097;-82
2023/05/27 07:19:26;;;;;;;5.40;1.83;;;;;;;;;;5113540;28;20050;-82
2023/05/27 07:21:51;;;;;;;7.10;2.22;;;;;;;;;;5113567;28;20269;-82
2023/05/27 07:24:17;;;;;;;7.27;2.03;;;;;;;;;;5113763;28;20027;-81
2023/05/27 07:26:42;;;;;;;3.87;1.50;;;;;;;;;;5113555;28;20322;-81
2023/05/27 07:29:08;;;;;;;4.87;2.33;;;;;;;;;;5097415;28;20102;-83
2023/05/27 07:31:33;;;;;;;4.95;2.00;;;;;;;;;;5117964;28;20020;-82
2023/05/27 07:33:58;;;;;;;6.20;2.50;;;;;;;;;;5117885;28;20015;-81
2023/05/27 07:36:24;;;;;;;6.63;2.10;;;;;;;;;;5117643;28;20730;-80
2023/05/27 07:38:49;;;;;;;5.80;1.93;;;;;;;;;;5117818;28;20080;-81
2023/05/27 07:41:14;;;;;;;4.90;1.90;;;;;;;;;;5117549;28;20020;-82
2023/05/27 07:43:40;;;;;;;5.38;2.00;;;;;;;;;;5117647;28;20100;-82
2023/05/27 07:46:05;;;;;;;9.07;2.40;;;;;;;;;;5118299;28;20076;-82
2023/05/27 07:48:30;;;;;;;7.23;2.03;;;;;;;;;;5117633;28;20739;-82
2023/05/27 07:50:56;;;;;;;6.18;2.30;;;;;;;;;;5117645;28;20028;-83
2023/05/27 07:53:21;;;;;;;5.10;2.20;;;;;;;;;;5117972;28;20035;-82
2023/05/27 07:55:46;;;;;;;7.20;2.53;;;;;;;;;;5117821;28;20261;-82
2023/05/27 07:58:12;;;;;;;10.50;2.70;;;;;;;;;;5117177;28;20106;-80
2023/05/27 08:00:37;;;;;;;6.47;2.08;;;;;;;;;;5098939;28;20332;-82
2023/05/27 08:03:02;;;;;;;4.53;1.90;;;;;;;;;;5117016;28;20059;-83
2023/05/27 08:05:28;;;;;;;5.20;2.20;;;;;;;;;;5117090;28;20342;-82
2023/05/27 08:07:53;;;;;;;6.77;2.30;;;;;;;;;;5117186;28;20023;-81
2023/05/27 08:10:18;;;;;;;6.95;2.60;;;;;;;;;;5117387;28;20652;-81
2023/05/27 08:12:43;;;;;;;9.57;2.17;;;;;;;;;;5117219;28;20023;-81
2023/05/27 08:15:09;;;;;;;6.13;2.30;;;;;;;;;;5117167;28;20457;-82
2023/05/27 08:17:34;;;;;;;8.68;2.42;;;;;;;;;;5117229;28;20011;-82
2023/05/27 08:19:59;;;;;;;9.40;2.67;;;;;;;;;;5117216;28;20028;-82
2023/05/27 08:22:24;;;;;;;9.30;2.77;;;;;;;;;;5116972;28;20054;-81
2023/05/27 08:24:51;;;;;;;6.27;2.60;;;;;;;;;;5116842;28;20038;-81
2023/05/27 08:27:17;;;;;;;5.78;2.20;;;;;;;;;;5116327;28;20529;-82
2023/05/27 08:29:42;;;;;;;6.35;2.58;;;;;;;;;;5116657;28;20158;-82
2023/05/27 08:32:07;;;;;;;5.20;2.10;;;;;;;;;;5116837;28;20080;-82
2023/05/27 08:34:33;;;;;;;8.50;2.80;;;;;;;;;;5116417;28;20019;-82
2023/05/27 08:36:59;;;;;;;5.68;2.00;;;;;;;;;;5116380;28;20269;-81
2023/05/27 08:39:25;;;;;;;7.10;2.63;;;;;;;;;;5116228;28;20086;-84
2023/05/27 08:41:50;;;;;;;6.78;2.67;;;;;;;;;;5115946;28;20028;-81
2023/05/27 08:44:16;;;;;;;4.82;2.47;;;;;;;;;;5117949;28;20032;-82
2023/05/27 08:46:41;;;;;;;7.90;2.00;;;;;;;;;;5116658;28;20062;-83
2023/05/27 08:49:07;;;;;;;5.85;1.92;;;;;;;;;;5118604;28;20031;-83
2023/05/27 08:51:32;;;;;;;6.80;2.00;;;;;;;;;;5120382;28;20024;-82
2023/05/27 08:53:58;;;;;;;6.70;2.50;;;;;;;;;;5121887;28;20023;-81
2023/05/27 08:56:25;;;;;;;4.07;2.33;;;;;;;;;;5120361;28;20027;-82
2023/05/27 08:58:50;;;;;;;5.53;2.47;;;;;;;;;;5126205;28;20789;-82
2023/05/27 09:01:17;;;;;;;8.73;2.72;;;;;;;;;;5121700;28;20024;-82
2023/05/27 09:03:43;;;;;;;7.85;2.70;;;;;;;;;;5121474;28;20027;-82
2023/05/27 09:06:08;;;;;;;6.45;2.65;;;;;;;;;;5116081;28;20103;-82
2023/05/27 09:08:34;;;;;;;4.55;1.65;;;;;;;;;;5116017;28;20463;-81
2023/05/27 09:10:59;;;;;;;7.03;2.13;;;;;;;;;;5097038;28;20094;-82
2023/05/27 09:13:28;;;;;;;8.00;2.07;;;;;;;;;;5115335;28;20064;-81
2023/05/27 09:16:11;;;;;;;5.85;2.45;;;;;;;;;;5115205;28;20297;-82
2023/05/27 09:18:36;;;;;;;6.05;2.10;;;;;;;;;;5115902;28;20115;-83
2023/05/27 09:21:02;;;;;;;6.43;2.43;;;;;;;;;;5115817;28;20413;-83
2023/05/27 09:23:27;;;;;;;5.00;1.67;;;;;;;;;;5115581;28;20031;-83
2023/05/27 09:25:53;;;;;;;4.67;1.90;;;;;;;;;;5115277;28;20621;-83
2023/05/27 09:28:22;;;;;;;6.78;2.58;;;;;;;;;;5115407;28;20032;-81
2023/05/27 09:30:51;;;;;;;7.97;2.58;;;;;;;;;;5115551;28;20366;-81
2023/05/27 09:33:22;;;;;;;6.80;2.70;;;;;;;;;;5115055;28;20059;-82
2023/05/27 09:35:47;;;;;;;6.50;3.05;;;;;;;;;;5115061;28;20458;-83
2023/05/27 09:38:12;;;;;;;4.43;2.53;;;;;;;;;;5114845;28;20027;-82
2023/05/27 09:40:38;;;;;;;8.55;2.50;;;;;;;;;;5114925;28;20061;-80
2023/05/27 09:43:03;;;;;;;9.55;2.83;;;;;;;;;;5114852;28;20024;-83
2023/05/27 09:45:28;;;;;;;4.47;2.10;;;;;;;;;;5114845;28;20425;-79
2023/05/27 09:47:53;;;;;;;6.22;2.10;;;;;;;;;;5115070;28;20273;-81
2023/05/27 09:50:20;;;;;;;8.45;2.60;;;;;;;;;;5114987;28;20019;-82
2023/05/27 09:52:46;;;;;;;11.07;2.72;;;;;;;;;;5114329;28;20024;-79
2023/05/27 09:55:14;;;;;;;7.32;2.70;;;;;;;;;;5114654;28;20460;-79
2023/05/27 09:57:40;;;;;;;9.27;2.38;;;;;;;;;;5114868;28;20030;-80
2023/05/27 10:00:13;;;;;;;6.50;2.30;;;;;;;;;;5114407;28;20040;-81
2023/05/27 10:02:39;;;;;;;5.90;2.72;;;;;;;;;;5114620;28;20369;-80
2023/05/27 10:05:07;;;;;;;6.05;2.15;;;;;;;;;;5114483;28;20034;-81
2023/05/27 10:07:35;;;;;;;7.90;2.45;;;;;;;;;;5114598;28;20465;-81
2023/05/27 10:10:01;;;;;;;10.45;2.70;;;;;;;;;;5096171;28;20042;-79
2023/05/27 10:12:26;;;;;;;6.85;2.55;;;;;;;;;;5114610;28;20024;-82
2023/05/27 10:14:51;;;;;;;6.18;2.40;;;;;;;;;;5114700;28;20295;-80
2023/05/27 10:17:17;;;;;;;7.43;2.13;;;;;;;;;;5114618;28;20019;-80
2023/05/27 10:19:55;;;;;;;6.13;2.40;;;;;;;;;;5114340;28;20408;-81
2023/05/27 10:22:21;;;;;;;8.90;2.58;;;;;;;;;;5114359;28;20277;-79
2023/05/27 10:24:48;;;;;;;6.72;2.58;;;;;;;;;;5114011;28;20027;-80
2023/05/27 10:27:13;;;;;;;8.82;2.53;;;;;;;;;;5114201;28;20055;-81
2023/05/27 10:29:39;;;;;;;9.13;3.35;;;;;;;;;;5114158;28;20093;-80
2023/05/27 10:32:04;;;;;;;7.22;2.22;;;;;;;;;;5114008;28;20027;-80
2023/05/27 10:34:36;;;;;;;6.72;2.67;;;;;;;;;;5114140;28;20023;-82
2023/05/27 10:37:02;;;;;;;6.28;2.08;;;;;;;;;;5114212;28;20016;-80
2023/05/27 10:39:27;;;;;;;4.15;2.30;;;;;;;;;;5095940;28;20032;-80
2023/05/27 10:41:53;;;;;;;10.05;2.80;;;;;;;;;;5114104;28;20453;-80
2023/05/27 10:44:44;;;;;;;11.23;2.63;;;;;;;;;;5114105;28;20057;-82
2023/05/27 10:47:13;;;;;;;6.47;2.13;;;;;;;;;;5108703;28;20055;-80
2023/05/27 10:49:39;;;;;;;8.35;2.75;;;;;;;;;;5113994;28;20099;-80
2023/05/27 10:52:12;;;;;;;7.40;2.13;;;;;;;;;;5113859;28;20015;-81
2023/05/27 10:54:50;;;;;;;4.70;2.28;;;;;;;;;;5113660;28;20342;-79
2023/05/27 10:57:16;;;;;;;9.23;2.38;;;;;;;;;;5114046;28;20020;-82
2023/05/27 10:59:47;;;;;;;5.57;1.83;;;;;;;;;;5113808;28;20036;-79
2023/05/27 11:02:13;;;;;;;5.93;2.20;;;;;;;;;;5113796;28;20055;-80
2023/05/27 11:04:38;;;;;;;5.65;2.10;;;;;;;;;;5113278;28;20410;-81
2023/05/27 11:07:04;;;;;;;5.07;1.70;;;;;;;;;;5114043;28;20023;-80
2023/05/27 11:09:30;;;;;;;6.50;2.58;;;;;;;;;;5113612;28;20778;-80
2023/05/27 11:11:55;;;;;;;4.57;2.15;;;;;;;;;;5113524;28;20040;-82
2023/05/27 11:14:21;;;;;;;3.42;1.77;;;;;;;;;;5114100;28;20034;-79
2023/05/27 11:16:52;;;;;;;6.97;2.20;;;;;;;;;;5114093;28;20119;-80
2023/05/27 11:19:18;;;;;;;3.25;1.80;;;;;;;;;;5114216;28;20295;-82
2023/05/27 11:21:47;;;;;;;7.38;2.50;;;;;;;;;;5113859;28;20016;-80
2023/05/27 11:24:16;;;;;;;4.10;2.25;;;;;;;;;;5095356;28;20028;-80
2023/05/27 11:26:43;;;;;;;7.72;2.25;;;;;;;;;;5095950;28;20027;-80
2023/05/27 11:29:08;;;;;;;3.83;1.92;;;;;;;;;;5113983;28;20107;-79
2023/05/27 11:31:33;;;;;;;3.88;1.95;;;;;;;;;;5113458;28;20098;-80
2023/05/27 11:33:59;;;;;;;4.57;1.60;;;;;;;;;;5113497;28;20008;-81
2023/05/27 11:36:28;;;;;;;3.50;1.92;;;;;;;;;;5113129;28;20771;-81
2023/05/27 11:38:58;;;;;;;4.80;2.03;;;;;;;;;;5112998;28;20039;-79
2023/05/27 11:41:27;;;;;;;3.90;1.92;;;;;;;;;;5113456;28;20041;-80
2023/05/27 11:44:06;;;;;;;3.17;1.65;;;;;;;;;;5095308;28;20011;-79
2023/05/27 11:46:35;;;;;;;5.82;1.95;;;;;;;;;;5113143;28;20020;-81
2023/05/27 11:49:00;;;;;;;3.67;2.00;;;;;;;;;;5112941;28;20488;-80
2023/05/27 11:51:27;;;;;;;6.38;1.77;;;;;;;;;;5112823;28;20041;-80
2023/05/27 11:53:54;;;;;;;2.78;1.80;;;;;;;;;;5094875;28;20039;-79
2023/05/27 11:56:20;;;;;;;5.43;1.85;;;;;;;;;;5113092;28;20453;-81
2023/05/27 11:58:45;;;;;;;6.03;2.00;;;;;;;;;;5112921;28;20064;-80
2023/05/27 12:01:10;;;;;;;5.17;1.60;;;;;;;;;;5112953;28;20341;-79
2023/05/27 12:03:35;;;;;;;3.63;1.98;;;;;;;;;;5112939;28;20273;-79
2023/05/27 12:06:01;;;;;;;7.30;2.10;;;;;;;;;;5094503;28;20011;-79
2023/05/27 12:08:27;;;;;;;8.07;2.10;;;;;;;;;;5112848;28;20023;-79
2023/05/27 12:10:53;;;;;;;2.97;1.80;;;;;;;;;;5094385;28;20027;-79
2023/05/27 12:13:19;;;;;;;6.45;1.80;;;;;;;;;;5112764;28;20515;-78
2023/05/27 12:15:45;;;;;;;4.68;1.98;;;;;;;;;;5096813;28;20039;-80
2023/05/27 12:18:10;;;;;;;7.35;1.95;;;;;;;;;;5116661;28;20049;-79
2023/05/27 12:20:35;;;;;;;2.28;1.80;;;;;;;;;;5116546;28;20015;-78
2023/05/27 12:23:00;;;;;;;5.70;2.10;;;;;;;;;;5116882;28;20027;-79
2023/05/27 12:25:26;;;;;;;6.37;3.13;;;;;;;;;;5098419;28;20279;-81
2023/05/27 12:27:51;;;;;;;3.92;1.95;;;;;;;;;;5098571;28;20612;-79
2023/05/27 12:30:16;;;;;;;6.53;2.83;;;;;;;;;;5116343;28;20070;-79
2023/05/27 12:32:41;;;;;;;4.38;2.63;;;;;;;;;;5116258;28;20022;-79
2023/05/27 12:35:07;;;;;;;4.53;2.28;;;;;;;;;;5116388;28;20015;-78
2023/05/27 12:37:32;;;;;;;4.20;2.10;;;;;;;;;;5116221;28;20019;-81
2023/05/27 12:39:57;;;;;;;3.72;2.03;;;;;;;;;;5098004;28;20036;-79
2023/05/27 12:42:23;;;;;;;3.73;2.10;;;;;;;;;;5116097;28;20026;-79
2023/05/27 12:44:48;;;;;;;3.20;1.77;;;;;;;;;;5097734;28;20265;-80
2023/05/27 12:47:13;;;;;;;6.47;2.92;;;;;;;;;;5115985;28;20023;-79
2023/05/27 12:49:39;;;;;;;4.68;2.05;;;;;;;;;;5116009;28;20020;-80
2023/05/27 12:52:04;;;;;;;4.47;2.05;;;;;;;;;;5116246;28;20371;-80
2023/05/27 12:54:30;;;;;;;7.50;2.35;;;;;;;;;;5097523;28;20409;-80
2023/05/27 12:56:55;;;;;;;5.22;2.40;;;;;;;;;;5116158;28;20012;-79
2023/05/27 12:59:21;;;;;;;4.20;2.05;;;;;;;;;;5098227;28;20036;-81
2023/05/27 13:01:46;;;;;;;4.73;2.00;;;;;;;;;;5116979;28;20111;-81
2023/05/27 13:04:12;;;;;;;5.32;1.85;;;;;;;;;;5117838;28;20795;-79
2023/05/27 13:06:37;;;;;;;3.83;2.00;;;;;;;;;;5117030;28;20044;-82
2023/05/27 13:09:03;;;;;;;4.70;1.88;;;;;;;;;;5117786;28;20016;-81
2023/05/27 13:11:29;;;;;;;3.55;1.95;;;;;;;;;;5120330;28;20026;-78
2023/05/27 13:13:54;;;;;;;2.28;1.80;;;;;;;;;;5121462;28;20024;-81
2023/05/27 13:16:19;;;;;;;4.22;1.98;;;;;;;;;;5127225;28;20016;-80
2023/05/27 13:18:45;;;;;;;3.92;1.70;;;;;;;;;;5127511;28;20019;-81
2023/05/27 13:21:13;;;;;;;3.50;2.10;;;;;;;;;;5098237;28;20039;-82
2023/05/27 13:23:38;;;;;;;3.03;1.83;;;;;;;;;;5121216;28;20038;-79
2023/05/27 13:26:05;;;;;;;5.25;2.10;;;;;;;;;;5115796;28;20421;-75
2023/05/27 13:28:30;;;;;;;4.03;2.05;;;;;;;;;;5115435;28;20023;-76
2023/05/27 13:30:56;;;;;;;7.07;2.42;;;;;;;;;;5115023;28;20019;-77
2023/05/27 13:33:21;;;;;;;4.47;2.63;;;;;;;;;;5096738;28;20102;-76
2023/05/27 13:35:47;;;;;;;5.05;2.10;;;;;;;;;;5096693;28;20016;-78
2023/05/27 13:38:14;;;;;;;3.53;1.63;;;;;;;;;;5115427;28;20023;-78
2023/05/27 13:40:40;;;;;;;3.05;1.95;;;;;;;;;;5115495;28;20096;-78
2023/05/27 13:43:05;;;;;;;6.03;2.05;;;;;;;;;;5115029;28;20098;-78
2023/05/27 13:45:31;;;;;;;5.15;1.45;;;;;;;;;;5096721;28;20039;-77
2023/05/27 13:47:56;;;;;;;2.30;1.67;;;;;;;;;;5115010;28;20062;-77
2023/05/27 13:50:21;;;;;;;5.68;1.88;;;;;;;;;;5114962;28;20272;-77
2023/05/27 13:52:47;;;;;;;2.75;1.90;;;;;;;;;;5115187;28;20015;-77
2023/05/27 13:55:12;;;;;;;2.47;1.50;;;;;;;;;;5114816;28;20027;-78
2023/05/27 13:57:37;;;;;;;5.10;1.80;;;;;;;;;;5096278;28;20049;-78
2023/05/27 14:00:03;;;;;;;2.95;2.08;;;;;;;;;;5114447;28;20520;-79
2023/05/27 14:02:28;;;;;;;4.55;1.77;;;;;;;;;;5115075;28;20110;-76
2023/05/27 14:04:54;;;;;;;3.43;1.50;;;;;;;;;;5114864;28;20554;-78
2023/05/27 14:07:19;;;;;;;4.82;1.63;;;;;;;;;;5114796;28;20258;-75
2023/05/27 14:09:45;;;;;;;3.35;1.30;;;;;;;;;;5114447;28;20106;-77
2023/05/27 14:12:10;;;;;;;4.10;1.77;;;;;;;;;;5095928;28;20101;-76
2023/05/27 14:14:36;;;;;;;4.93;1.73;;;;;;;;;;5096052;28;20024;-76
2023/05/27 14:17:01;;;;;;;4.95;1.50;;;;;;;;;;5096213;28;20506;-77
2023/05/27 14:19:26;;;;;;;5.70;1.83;;;;;;;;;;5114337;28;20052;-76
2023/05/27 14:21:52;;;;;;;3.70;1.50;;;;;;;;;;5114338;28;20020;-76
2023/05/27 14:24:17;;;;;;;6.28;2.70;;;;;;;;;;5095994;28;20023;-77
2023/05/27 14:26:43;;;;;;;3.25;1.40;;;;;;;;;;5114585;28;20427;-78
2023/05/27 14:29:09;;;;;;;5.30;1.80;;;;;;;;;;5114198;28;20019;-78
2023/05/27 14:31:34;;;;;;;3.38;1.55;;;;;;;;;;5114023;28;20024;-77